createdAt,value
2023-04-02T00:01:49.906Z,7.79
2023-04-02T00:04:41.941Z,7.77
2023-04-02T00:07:38.301Z,7.76
2023-04-02T00:10:42.655Z,7.75
2023-04-02T00:13:45.574Z,7.77
2023-04-02T00:16:38.297Z,7.77
2023-04-02T00:19:34.099Z,7.78
2023-04-02T00:22:32.659Z,7.79
2023-04-02T00:25:32.457Z,7.84
2023-04-02T00:28:26.548Z,7.87
2023-04-02T00:31:22.041Z,7.91
2023-04-02T00:34:37.736Z,7.96
2023-04-02T00:37:39.093Z,8.02
2023-04-02T00:40:35.463Z,8.05
2023-04-02T00:43:53.877Z,8.09
2023-04-02T00:47:09.898Z,8.14
2023-04-02T00:50:53.621Z,8.20
2023-04-02T00:53:54.572Z,8.23
2023-04-02T01:21:24.230Z,8.37
2023-04-02T01:24:26.632Z,8.37
2023-04-02T01:27:40.164Z,8.36
2023-04-02T01:30:37.587Z,8.37
2023-04-02T01:33:55.678Z,8.37
2023-04-02T01:37:09.192Z,8.38
2023-04-02T01:40:22.541Z,8.36
2023-04-02T01:43:30.157Z,8.31
2023-04-02T01:46:50.646Z,8.26
2023-04-02T01:49:44.557Z,8.23
2023-04-02T01:52:45.413Z,8.18
2023-04-02T01:55:39.316Z,8.14
2023-04-02T01:58:34.139Z,8.11
2023-04-02T02:02:13.644Z,8.08
2023-04-02T02:04:43.711Z,8.05
2023-04-02T02:07:18.838Z,8.03
2023-04-02T02:09:52.049Z,8.01
2023-04-02T02:12:21.622Z,7.99
2023-04-02T02:14:53.147Z,7.97
2023-04-02T02:17:36.214Z,7.95
2023-04-02T02:20:12.737Z,7.93
2023-04-02T02:22:46.501Z,7.92
2023-04-02T02:25:21.108Z,7.89
2023-04-02T02:27:59.727Z,7.86
2023-04-02T02:30:39.285Z,7.84
2023-04-02T02:33:22.766Z,7.82
2023-04-02T02:36:28.708Z,7.81
2023-04-02T02:39:36.768Z,7.79
2023-04-02T02:42:21.932Z,7.77
2023-04-02T02:44:56.646Z,7.77
2023-04-02T02:47:29.862Z,7.80
2023-04-02T02:50:03.888Z,7.82
2023-04-02T02:52:37.270Z,7.84
2023-04-02T02:55:14.098Z,7.86
2023-04-02T02:57:58.213Z,7.87
2023-04-02T03:00:29.902Z,7.87
2023-04-02T03:03:04.614Z,7.88
2023-04-02T03:05:36.403Z,7.89
2023-04-02T03:08:38.986Z,7.91
2023-04-02T03:11:30.806Z,7.90
2023-04-02T03:14:14.732Z,7.90
2023-04-02T03:16:49.319Z,7.89
2023-04-02T03:19:33.940Z,7.89
2023-04-02T03:22:12.717Z,7.89
2023-04-02T03:25:07.281Z,7.90
2023-04-02T03:27:42.253Z,7.91
2023-04-02T03:30:28.738Z,7.92
2023-04-02T03:33:25.458Z,7.92
2023-04-02T03:36:13.975Z,7.93
2023-04-02T03:38:47.796Z,7.95
2023-04-02T03:41:24.864Z,7.99
2023-04-02T03:44:00.429Z,8.02
2023-04-02T03:46:40.109Z,8.04
2023-04-02T03:49:19.471Z,8.05
2023-04-02T03:52:15.882Z,8.03
2023-04-02T03:55:04.752Z,8.01
2023-04-02T03:57:44.181Z,7.97
2023-04-02T04:00:15.131Z,7.93
2023-04-02T04:02:50.426Z,7.89
2023-04-02T04:05:27.167Z,7.88
2023-04-02T04:08:05.234Z,7.85
2023-04-02T04:10:35.650Z,7.81
2023-04-02T04:13:32.333Z,7.77
2023-04-02T04:16:07.495Z,7.73
2023-04-02T04:19:18.690Z,7.70
2023-04-02T04:21:48.571Z,7.68
2023-04-02T04:24:26.495Z,7.66
2023-04-02T04:27:33.982Z,7.65
2023-04-02T04:30:18.541Z,7.62
2023-04-02T04:33:04.831Z,7.60
2023-04-02T04:35:36.967Z,7.58
2023-04-02T04:51:54.643Z,7.55
2023-04-02T04:54:28.420Z,7.59
2023-04-02T04:57:03.307Z,7.61
2023-04-02T04:59:41.705Z,7.65
2023-04-02T05:02:21.158Z,7.71
2023-04-02T05:05:00.010Z,7.77
2023-04-02T05:07:44.223Z,7.84
2023-04-02T05:10:36.322Z,7.91
2023-04-02T05:13:12.652Z,7.98
2023-04-02T05:16:01.186Z,8.04
2023-04-02T05:18:51.375Z,8.10
2023-04-02T05:21:52.250Z,8.18
2023-04-02T05:24:34.816Z,8.26
2023-04-02T05:27:24.940Z,8.34
2023-04-02T05:35:16.544Z,8.55
2023-04-02T05:38:46.473Z,8.64
2023-04-02T05:42:37.224Z,8.71
2023-04-02T05:45:41.363Z,8.77
2023-04-02T05:48:17.852Z,8.83
2023-04-02T05:50:51.609Z,8.87
2023-04-02T05:53:36.702Z,8.92
2023-04-02T05:56:22.515Z,8.97
2023-04-02T05:59:21.794Z,9.02
2023-04-02T06:02:00.600Z,9.04
2023-04-02T06:04:49.245Z,9.05
2023-04-02T06:07:28.768Z,9.07
2023-04-02T06:10:01.398Z,9.11
2023-04-02T06:12:44.404Z,9.16
2023-04-02T06:15:19.233Z,9.18
2023-04-02T06:17:51.792Z,9.19
2023-04-02T06:20:21.343Z,9.22
2023-04-02T06:23:00.010Z,9.23
2023-04-02T06:25:34.203Z,9.24
2023-04-02T06:28:07.408Z,9.26
2023-04-02T06:30:40.750Z,9.30
2023-04-02T06:33:16.702Z,9.33
2023-04-02T06:35:51.514Z,9.37
2023-04-02T06:38:34.526Z,9.39
2023-04-02T06:41:21.750Z,9.42
2023-04-02T06:44:44.527Z,9.48
2023-04-02T06:47:54.503Z,9.52
2023-04-02T06:50:33.479Z,9.56
2023-04-02T06:53:28.995Z,9.61
2023-04-02T06:56:25.610Z,9.69
2023-04-02T06:58:55.282Z,9.81
2023-04-02T07:01:29.830Z,9.90
2023-04-02T07:04:00.629Z,9.97
2023-04-02T07:06:50.180Z,10.05
2023-04-02T07:09:21.632Z,10.13
2023-04-02T07:11:55.882Z,10.22
2023-04-02T07:14:49.327Z,10.31
2023-04-02T07:17:21.019Z,10.43
2023-04-02T07:20:04.007Z,10.53
2023-04-02T07:22:58.443Z,10.63
2023-04-02T07:25:51.329Z,10.71
2023-04-02T07:28:23.226Z,10.77
2023-04-02T07:30:56.261Z,10.83
2023-04-02T07:33:32.424Z,10.89
2023-04-02T07:36:05.023Z,10.95
2023-04-02T07:38:38.937Z,11.03
2023-04-02T07:41:11.848Z,11.13
2023-04-02T07:43:41.145Z,11.25
2023-04-02T07:46:10.928Z,11.41
2023-04-02T07:48:40.485Z,11.50
2023-04-02T07:51:23.724Z,11.56
2023-04-02T07:53:56.173Z,11.63
2023-04-02T07:56:25.408Z,11.68
2023-04-02T07:58:53.429Z,11.74
2023-04-02T08:01:25.953Z,11.81
2023-04-02T08:03:57.949Z,11.88
2023-04-02T08:06:26.041Z,11.98
2023-04-02T08:08:54.296Z,12.03
2023-04-02T08:11:22.426Z,11.98
2023-04-02T08:13:50.684Z,11.93
2023-04-02T08:16:18.726Z,11.84
2023-04-02T08:18:47.773Z,11.74
2023-04-02T08:21:16.607Z,11.70
2023-04-02T08:23:45.301Z,11.65
2023-04-02T08:26:19.247Z,11.62
2023-04-02T08:28:50.939Z,11.59
2023-04-02T08:31:20.970Z,11.57
2023-04-02T08:33:49.647Z,11.54
2023-04-02T08:36:19.454Z,11.52
2023-04-02T08:38:48.048Z,11.51
2023-04-02T08:41:25.157Z,11.47
2023-04-02T08:44:11.963Z,11.46
2023-04-02T08:46:49.540Z,11.48
2023-04-02T08:49:58.269Z,11.48
2023-04-02T08:52:33.353Z,11.48
2023-04-02T08:55:02.801Z,11.47
2023-04-02T08:57:37.092Z,11.44
2023-04-02T09:00:34.152Z,11.40
2023-04-02T09:03:11.056Z,11.38
2023-04-02T09:05:42.861Z,11.38
2023-04-02T09:08:26.349Z,11.39
2023-04-02T09:11:09.747Z,11.40
2023-04-02T09:13:46.618Z,11.41
2023-04-02T09:16:17.968Z,11.40
2023-04-02T09:18:48.092Z,11.39
2023-04-02T09:21:22.448Z,11.35
2023-04-02T09:23:50.672Z,11.34
2023-04-02T09:26:25.467Z,11.35
2023-04-02T09:29:02.251Z,11.35
2023-04-02T09:31:42.665Z,11.37
2023-04-02T09:34:31.014Z,11.41
2023-04-02T09:37:29.547Z,11.46
2023-04-02T09:40:17.059Z,11.52
2023-04-02T09:42:45.713Z,11.59
2023-04-02T09:45:20.351Z,11.63
2023-04-02T09:47:50.036Z,11.67
2023-04-02T09:50:21.084Z,11.74
2023-04-02T09:52:50.594Z,11.84
2023-04-02T09:55:27.484Z,11.88
2023-04-02T09:58:13.494Z,11.91
2023-04-02T10:00:51.314Z,11.99
2023-04-02T10:03:25.345Z,12.10
2023-04-02T10:06:16.438Z,12.13
2023-04-02T10:08:46.210Z,12.01
2023-04-02T10:11:36.566Z,11.89
2023-04-02T10:14:26.311Z,11.92
2023-04-02T10:16:58.673Z,11.93
2023-04-02T10:19:26.654Z,11.98
2023-04-02T10:21:56.629Z,12.05
2023-04-02T10:24:28.298Z,12.18
2023-04-02T10:27:09.967Z,12.23
2023-04-02T10:30:05.559Z,12.30
2023-04-02T10:32:57.589Z,12.39
2023-04-02T10:35:35.441Z,12.39
2023-04-02T10:38:24.758Z,12.40
2023-04-02T10:41:04.581Z,12.30
2023-04-02T10:44:09.121Z,12.20
2023-04-02T10:47:13.009Z,12.12
2023-04-02T10:50:15.812Z,12.09
2023-04-02T10:53:03.298Z,12.02
2023-04-02T10:55:39.899Z,12.01
2023-04-02T10:58:14.153Z,12.06
2023-04-02T11:00:46.895Z,12.15
2023-04-02T11:03:24.207Z,12.23
2023-04-02T11:05:57.922Z,12.29
2023-04-02T11:08:26.064Z,12.38
2023-04-02T11:11:07.994Z,12.45
2023-04-02T11:13:50.858Z,12.57
2023-04-02T11:16:19.097Z,12.77
2023-04-02T11:19:32.928Z,12.79
2023-04-02T11:22:25.687Z,12.79
2023-04-02T11:24:57.290Z,12.73
2023-04-02T11:27:27.779Z,12.76
2023-04-02T11:30:08.535Z,12.78
2023-04-02T11:32:43.103Z,12.66
2023-04-02T11:35:33.262Z,12.65
2023-04-02T11:38:23.992Z,12.64
2023-04-02T11:40:54.973Z,12.57
2023-04-02T11:43:38.266Z,12.51
2023-04-02T11:46:42.197Z,12.41
2023-04-02T11:49:40.300Z,12.30
2023-04-02T11:52:42.852Z,12.32
2023-04-02T11:55:30.837Z,12.32
2023-04-02T11:58:07.024Z,12.27
2023-04-02T12:01:14.793Z,12.22
2023-04-02T12:03:53.929Z,12.15
2023-04-02T12:06:28.631Z,12.15
2023-04-02T12:09:14.809Z,12.17
2023-04-02T12:11:48.121Z,12.18
2023-04-02T12:14:38.417Z,12.18
2023-04-02T12:17:35.815Z,12.16
2023-04-02T12:20:27.510Z,12.19
2023-04-02T12:22:57.487Z,12.31
2023-04-02T12:25:40.047Z,12.42
2023-04-02T12:28:11.903Z,12.46
2023-04-02T12:30:41.791Z,12.53
2023-04-02T12:33:37.593Z,12.56
2023-04-02T12:36:16.662Z,12.56
2023-04-02T12:38:55.154Z,12.66
2023-04-02T12:41:31.063Z,12.67
2023-04-02T12:44:04.450Z,12.63
2023-04-02T12:46:35.675Z,12.63
2023-04-02T12:49:24.781Z,12.56
2023-04-02T12:51:54.580Z,12.50
2023-04-02T12:54:23.140Z,12.50
2023-04-02T12:56:51.647Z,12.56
2023-04-02T12:59:22.793Z,12.68
2023-04-02T13:02:02.644Z,12.76
2023-04-02T13:04:31.492Z,12.84
2023-04-02T13:06:59.865Z,12.85
2023-04-02T13:09:46.775Z,12.83
2023-04-02T13:12:35.132Z,12.81
2023-04-02T13:15:08.156Z,12.81
2023-04-02T13:17:41.524Z,12.78
2023-04-02T13:20:36.346Z,12.75
2023-04-02T13:23:29.931Z,12.71
2023-04-02T13:26:22.110Z,12.74
2023-04-02T13:28:59.631Z,12.79
2023-04-02T13:31:32.698Z,12.81
2023-04-02T13:34:03.747Z,12.78
2023-04-02T13:36:32.537Z,12.79
2023-04-02T13:39:01.463Z,12.80
2023-04-02T13:41:32.474Z,12.83
2023-04-02T13:44:02.798Z,12.82
2023-04-02T13:46:33.652Z,12.81
2023-04-02T13:49:02.569Z,12.81
2023-04-02T13:51:31.932Z,12.83
2023-04-02T13:54:00.681Z,12.82
2023-04-02T13:56:29.851Z,12.74
2023-04-02T13:58:58.952Z,12.59
2023-04-02T14:01:28.070Z,12.45
2023-04-02T14:03:58.155Z,12.33
2023-04-02T14:06:37.454Z,12.21
2023-04-02T14:09:25.078Z,12.10
2023-04-02T14:12:10.078Z,12.02
2023-04-02T14:15:09.065Z,11.98
2023-04-02T14:18:08.412Z,11.95
2023-04-02T14:21:02.986Z,11.96
2023-04-02T14:24:06.506Z,11.93
2023-04-02T14:26:39.797Z,11.92
2023-04-02T14:29:30.081Z,11.90
2023-04-02T14:32:37.912Z,11.89
2023-04-02T14:35:46.862Z,11.92
2023-04-02T14:38:16.847Z,11.96
2023-04-02T14:40:50.417Z,11.99
2023-04-02T14:43:33.103Z,12.02
2023-04-02T14:46:10.511Z,12.11
2023-04-02T14:49:07.272Z,12.20
2023-04-02T14:51:49.906Z,12.28
2023-04-02T14:54:40.044Z,12.34
2023-04-02T14:57:25.154Z,12.36
2023-04-02T15:00:31.776Z,12.35
2023-04-02T15:03:17.024Z,12.32
2023-04-02T15:06:10.860Z,12.35
2023-04-02T15:09:08.400Z,12.40
2023-04-02T15:12:03.780Z,12.41
2023-04-02T15:14:35.574Z,12.41
2023-04-02T15:17:03.917Z,12.41
2023-04-02T15:19:32.202Z,12.38
2023-04-02T15:22:48.147Z,12.32
2023-04-02T15:25:33.993Z,12.23
2023-04-02T15:28:09.901Z,12.14
2023-04-02T15:30:42.429Z,12.07
2023-04-02T15:33:29.585Z,12.01
2023-04-02T15:36:09.680Z,11.94
2023-04-02T15:38:58.018Z,11.89
2023-04-02T15:41:27.850Z,11.86
2023-04-02T15:44:13.953Z,11.82
2023-04-02T15:47:07.212Z,11.75
2023-04-02T15:49:46.947Z,11.69
2023-04-02T15:52:54.747Z,11.66
2023-04-02T15:55:33.526Z,11.67
2023-04-02T15:58:17.367Z,11.68
2023-04-02T16:01:11.881Z,11.71
2023-04-02T16:04:05.864Z,11.70
2023-04-02T16:06:37.139Z,11.67
2023-04-02T16:09:24.007Z,11.66
2023-04-02T16:11:59.820Z,11.63
2023-04-02T16:14:31.574Z,11.60
2023-04-02T16:17:17.641Z,11.56
2023-04-02T16:20:00.180Z,11.50
2023-04-02T16:22:30.845Z,11.45
2023-04-02T16:25:14.892Z,11.39
2023-04-02T16:28:08.037Z,11.33
2023-04-02T16:31:14.414Z,11.27
2023-04-02T16:34:24.280Z,11.21
2023-04-02T16:37:02.332Z,11.14
2023-04-02T16:39:57.096Z,11.06
2023-04-02T16:42:31.405Z,10.99
2023-04-02T16:45:14.828Z,10.92
2023-04-02T16:47:50.401Z,10.86
2023-04-02T16:50:57.050Z,10.81
2023-04-02T16:53:58.425Z,10.75
2023-04-02T16:56:46.409Z,10.71
2023-04-02T16:59:44.335Z,10.69
2023-04-02T17:02:46.529Z,10.67
2023-04-02T17:05:29.958Z,10.63
2023-04-02T17:08:17.331Z,10.60
2023-04-02T17:11:06.828Z,10.59
2023-04-02T17:13:42.958Z,10.54
2023-04-02T17:16:12.603Z,10.51
2023-04-02T17:18:44.341Z,10.48
2023-04-02T17:21:24.451Z,10.43
2023-04-02T17:24:03.065Z,10.37
2023-04-02T17:34:52.972Z,10.12
2023-04-02T17:37:34.863Z,10.04
2023-04-02T17:40:32.021Z,9.99
2023-04-02T17:43:15.414Z,9.94
2023-04-02T17:45:56.490Z,9.88
2023-04-02T17:48:47.777Z,9.82
2023-04-02T17:51:30.521Z,9.71
2023-04-02T17:54:20.194Z,9.63
2023-04-02T17:56:56.953Z,9.56
2023-04-02T17:59:46.931Z,9.52
2023-04-02T18:02:44.369Z,9.48
2023-04-02T18:05:21.561Z,9.43
2023-04-02T18:08:33.257Z,9.37
2023-04-02T18:11:34.812Z,9.29
2023-04-02T18:15:04.855Z,9.21
2023-04-02T18:18:02.901Z,9.06
2023-04-02T18:21:12.637Z,8.95
2023-04-02T18:23:58.017Z,8.90
2023-04-02T18:26:34.588Z,8.88
2023-04-02T18:29:19.040Z,8.85
2023-04-02T18:32:26.216Z,8.82
2023-04-02T18:35:25.678Z,8.79
2023-04-02T18:38:11.924Z,8.78
2023-04-02T18:40:52.075Z,8.78
2023-04-02T18:43:34.031Z,8.78
2023-04-02T18:46:30.667Z,8.77
2023-04-02T18:49:26.686Z,8.79
2023-04-02T18:52:04.481Z,8.79
2023-04-02T18:54:43.263Z,8.78
2023-04-02T18:57:18.385Z,8.70
2023-04-02T18:59:57.812Z,8.65
2023-04-02T19:02:35.461Z,8.66
2023-04-02T19:05:14.941Z,8.66
2023-04-02T19:07:46.785Z,8.66
2023-04-02T19:10:42.171Z,8.67
2023-04-02T19:13:16.659Z,8.64
2023-04-02T19:15:58.486Z,8.60
2023-04-02T19:18:39.527Z,8.61
2023-04-02T19:21:53.214Z,8.62
2023-04-02T19:24:33.344Z,8.61
2023-04-02T19:27:13.402Z,8.63
2023-04-02T19:30:11.723Z,8.62
2023-04-02T19:33:07.681Z,8.59
2023-04-02T19:35:42.450Z,8.54
2023-04-02T19:38:41.625Z,8.50
2023-04-02T19:41:23.042Z,8.47
2023-04-02T19:44:13.229Z,8.45
2023-04-02T19:46:54.225Z,8.44
2023-04-02T19:49:36.705Z,8.44
2023-04-02T19:52:05.541Z,8.45
2023-04-02T19:54:36.461Z,8.44
2023-04-02T19:57:07.813Z,8.40
2023-04-02T19:59:36.167Z,8.40
2023-04-02T20:02:08.747Z,8.40
2023-04-02T20:04:38.373Z,8.39
2023-04-02T20:07:06.653Z,8.37
2023-04-02T20:09:35.673Z,8.36
2023-04-02T20:12:04.117Z,8.34
2023-04-02T20:14:32.286Z,8.32
2023-04-02T20:17:00.658Z,8.29
2023-04-02T20:19:29.065Z,8.25
2023-04-02T20:21:57.374Z,8.20
2023-04-02T20:24:25.854Z,8.18
2023-04-02T20:26:54.556Z,8.17
2023-04-02T20:29:24.705Z,8.20
2023-04-02T20:31:53.113Z,8.23
2023-04-02T20:34:21.399Z,8.26
2023-04-02T20:36:50.839Z,8.28
2023-04-02T20:39:20.970Z,8.29
2023-04-02T20:41:49.128Z,8.32
2023-04-02T20:44:17.504Z,8.33
2023-04-02T20:46:45.644Z,8.34
2023-04-02T20:49:13.821Z,8.36
2023-04-02T20:51:42.032Z,8.38
2023-04-02T20:54:10.701Z,8.37
2023-04-02T20:56:38.831Z,8.39
2023-04-02T20:59:06.788Z,8.41
2023-04-02T21:01:34.838Z,8.44
2023-04-02T21:04:04.095Z,8.45
2023-04-02T21:06:36.251Z,8.43
2023-04-02T21:09:08.546Z,8.40
2023-04-02T21:11:38.134Z,8.37
2023-04-02T21:14:06.430Z,8.36
2023-04-02T21:16:34.721Z,8.39
2023-04-02T21:19:07.922Z,8.45
2023-04-02T21:21:39.008Z,8.48
2023-04-02T21:24:10.103Z,8.49
2023-04-02T21:26:41.140Z,8.50
2023-04-02T21:29:12.248Z,8.45
2023-04-02T21:31:40.933Z,8.43
2023-04-02T21:34:14.012Z,8.37
2023-04-02T21:36:47.431Z,8.29
2023-04-02T21:39:23.751Z,8.22
2023-04-02T21:41:53.341Z,8.17
2023-04-02T21:44:23.215Z,8.11
2023-04-02T21:46:53.680Z,8.05
2023-04-02T21:49:23.556Z,8.00
2023-04-02T21:51:52.538Z,7.97
2023-04-02T21:54:21.015Z,7.92
2023-04-02T21:56:49.203Z,7.85
2023-04-02T21:59:18.373Z,7.75
2023-04-02T22:01:49.137Z,7.69
2023-04-02T22:04:23.030Z,7.63
2023-04-02T22:06:52.373Z,7.57
2023-04-02T22:09:23.607Z,7.51
2023-04-02T22:11:55.631Z,7.45
2023-04-02T22:14:24.506Z,7.40
2023-04-02T22:16:52.688Z,7.35
2023-04-02T22:19:21.061Z,7.29
2023-04-02T22:21:49.386Z,7.24
2023-04-02T22:24:25.229Z,7.20
2023-04-02T22:26:54.150Z,7.14
2023-04-02T22:29:22.452Z,7.08
2023-04-02T22:31:52.177Z,7.06
2023-04-02T22:34:21.112Z,7.05
2023-04-02T22:36:49.258Z,7.05
2023-04-02T22:39:17.437Z,7.05
2023-04-02T22:41:46.482Z,7.07
2023-04-02T22:44:16.009Z,7.09
2023-04-02T22:46:44.131Z,7.11
2023-04-02T22:49:12.615Z,7.09
2023-04-02T22:51:40.961Z,7.06
2023-04-02T22:54:08.972Z,7.06
2023-04-02T22:56:37.668Z,7.05
2023-04-02T22:59:06.101Z,7.04
2023-04-02T23:01:36.100Z,6.97
2023-04-02T23:04:05.226Z,6.91
2023-04-02T23:06:33.930Z,6.88
2023-04-02T23:09:02.248Z,6.85
2023-04-02T23:11:30.484Z,6.82
2023-04-02T23:13:59.108Z,6.81
2023-04-02T23:16:29.329Z,6.80
2023-04-02T23:18:57.923Z,6.78
2023-04-02T23:21:26.767Z,6.77
2023-04-02T23:23:55.080Z,6.75
2023-04-02T23:26:31.601Z,6.74
2023-04-02T23:29:00.743Z,6.74
2023-04-02T23:31:29.033Z,6.73
2023-04-02T23:33:57.246Z,6.73
2023-04-02T23:36:27.019Z,6.72
2023-04-02T23:38:59.727Z,6.69
2023-04-02T23:41:29.975Z,6.68
2023-04-02T23:43:58.607Z,6.67
2023-04-02T23:46:27.835Z,6.64
2023-04-02T23:48:56.832Z,6.62
2023-04-02T23:51:26.884Z,6.58
2023-04-02T23:53:56.432Z,6.53
2023-04-02T23:56:24.971Z,6.47
2023-04-02T23:58:53.527Z,6.41
